Time;durP1;ratioP1;P1;durP2;ratioP2;P2;SDS_P1;SDS_P2;PMS_P1;PMS_P2;Temp;Humidity;BMP_temperature;BMP_pressure;BME280_temperature;BME280_humidity;BME280_pressure;Samples;Min_cycle;Max_cycle;Signal;HPM_P1;HPM_P2
2022/02/03 00:01:24;;;;;;;;;;;;;;;20.52;42.57;101717.38;7278978;19;152475;-49
2022/02/03 00:03:59;;;;;;;;;;;;;;;20.51;42.58;101718.50;7284176;19;153196;-48
2022/02/03 00:06:35;;;;;;;;;;;;;;;20.50;42.90;101721.59;7282229;19;154290;-49
2022/02/03 00:09:28;;;;;;;;;;;;;;;20.47;42.92;101716.56;7283329;19;151968;-48
2022/02/03 00:16:15;;;;;;;;;;;;;;;20.44;42.89;101714.34;7282363;19;153825;-48
2022/02/03 00:25:06;;;;;;;;;;;;;;;20.34;43.39;101718.03;7283965;19;153312;-49
2022/02/03 00:27:43;;;;;;;;;;;;;;;20.32;43.56;101709.06;7284302;19;153876;-49
2022/02/03 00:30:13;;;;;;;;;;;;;;;20.29;43.24;101698.38;7284896;19;151507;-49
2022/02/03 00:37:59;;;;;;;;;;;;;;;20.27;43.50;101697.81;7290307;19;152182;-48
2022/02/03 00:48:23;;;;;;;;;;;;;;;20.20;43.57;101674.84;7283405;19;153523;-49
2022/02/03 00:50:51;;;;;;;;;;;;;;;20.19;43.47;101667.56;7284339;19;152012;-49
2022/02/03 00:53:22;;;;;;;;;;;;;;;20.17;43.62;101662.22;7282717;19;151770;-48
2022/02/03 00:55:52;;;;;;;;;;;;;;;20.17;43.91;101672.66;7283045;19;152281;-48
2022/02/03 00:58:22;;;;;;;;;;;;;;;20.13;43.66;101671.50;7291318;19;152275;-49
2022/02/03 01:00:50;;;;;;;;;;;;;;;20.13;44.00;101654.69;7279053;19;152465;-50
2022/02/03 01:03:18;;;;;;;;;;;;;;;20.12;43.62;101664.25;7282881;19;151678;-49
2022/02/03 01:05:49;;;;;;;;;;;;;;;20.09;43.83;101654.44;7282047;19;151995;-49
2022/02/03 01:08:19;;;;;;;;;;;;;;;20.07;44.03;101662.31;7283292;19;153649;-48
2022/02/03 01:10:53;;;;;;;;;;;;;;;20.07;44.08;101656.69;7283545;19;152308;-48
2022/02/03 01:16:05;;;;;;;;;;;;;;;20.06;44.06;101659.78;7282647;19;154158;-49
2022/02/03 01:44:46;;;;;;;;;;;;;;;19.92;44.02;101611.88;7290509;19;153769;-48
2022/02/03 01:52:27;;;;;;;;;;;;;;;19.88;43.79;101605.19;7281026;19;151961;-48
2022/02/03 01:54:55;;;;;;;;;;;;;;;19.87;44.11;101604.34;7278535;19;152791;-49
2022/02/03 01:57:24;;;;;;;;;;;;;;;19.87;43.79;101603.50;7279932;19;153909;-49
2022/02/03 01:59:57;;;;;;;;;;;;;;;19.85;44.17;101600.97;7283042;19;151638;-49
2022/02/03 02:02:27;;;;;;;;;;;;;;;19.84;44.10;101602.13;7282334;19;153178;-49
2022/02/03 02:05:01;;;;;;;;;;;;;;;19.84;44.15;101595.66;7281034;19;152349;-49
2022/02/03 02:07:38;;;;;;;;;;;;;;;19.82;44.01;101592.28;7290800;19;151763;-49
2022/02/03 02:13:09;;;;;;;;;;;;;;;19.80;43.90;101581.38;7279915;19;152086;-48
2022/02/03 02:15:58;;;;;;;;;;;;;;;19.81;44.17;101573.78;7283372;19;152922;-49
2022/02/03 02:39:47;;;;;;;;;;;;;;;19.67;44.21;101545.53;7286320;19;154717;-48
2022/02/03 02:42:32;;;;;;;;;;;;;;;19.65;44.09;101544.16;7286610;19;152089;-48
2022/02/03 02:45:02;;;;;;;;;;;;;;;19.62;44.09;101525.13;7287951;19;153523;-49
2022/02/03 02:47:36;;;;;;;;;;;;;;;19.62;44.33;101522.31;7283339;19;153471;-48
2022/02/03 02:50:07;;;;;;;;;;;;;;;19.59;44.35;101518.13;7287666;19;151684;-48
2022/02/03 02:52:42;;;;;;;;;;;;;;;19.57;44.31;101511.13;7286480;19;152873;-48
2022/02/03 02:55:24;;;;;;;;;;;;;;;19.57;43.94;101503.56;7291240;19;151973;-48
2022/02/03 02:58:09;;;;;;;;;;;;;;;19.54;44.27;101499.38;7287870;19;151861;-48
2022/02/03 03:29:47;;;;;;;;;;;;;;;19.43;44.42;101482.88;7285843;19;153502;-49
2022/02/03 03:37:31;;;;;;;;;;;;;;;19.40;44.77;101461.00;7283702;19;154220;-48
2022/02/03 03:40:01;;;;;;;;;;;;;;;19.38;44.83;101458.50;7290956;19;153001;-49
2022/02/03 03:42:31;;;;;;;;;;;;;;;19.38;45.05;101455.72;7285636;19;153916;-50
2022/02/03 03:44:59;;;;;;;;;;;;;;;19.36;44.80;101452.34;7284341;19;152007;-49
2022/02/03 03:47:29;;;;;;;;;;;;;;;19.35;45.11;101463.84;7284483;19;152370;-49
2022/02/03 03:50:00;;;;;;;;;;;;;;;19.35;44.82;101469.47;7284084;19;153993;-48
2022/02/03 03:52:29;;;;;;;;;;;;;;;19.33;44.70;101472.53;7284047;19;151792;-50
2022/02/03 03:55:15;;;;;;;;;;;;;;;19.32;44.62;101476.47;7282207;19;152346;-49
2022/02/03 04:41:34;;;;;;;;;;;;;;;19.15;45.27;101383.56;7284605;19;153592;-48
2022/02/03 04:46:20;;;;;;;;;;;;;;;19.14;45.36;101364.22;7284578;19;152449;-48
2022/02/03 05:04:58;;;;;;;;;;;;;;;19.07;45.52;101351.41;7282245;19;152149;-49
2022/02/03 05:10:24;;;;;;;;;;;;;;;19.06;45.62;101349.72;7282162;19;154069;-49
2022/02/03 05:13:07;;;;;;;;;;;;;;;19.06;45.29;101343.28;7288036;19;151902;-48
2022/02/03 05:45:06;;;;;;;;;;;;;;;19.35;46.70;101295.75;7281029;19;153386;-49
2022/02/03 06:00:54;;;;;;;;;;;;;;;19.59;46.52;101282.66;7288189;19;152373;-49
2022/02/03 06:06:26;;;;;;;;;;;;;;;19.91;46.27;101280.13;7283357;19;153370;-49
2022/02/03 06:08:56;;;;;;;;;;;;;;;19.97;46.90;101272.50;7287191;19;152158;-47
2022/02/03 06:14:13;;;;;;;;;;;;;;;20.10;46.35;101268.97;7282458;19;153619;-48
2022/02/03 06:29:36;;;;;;;;;;;;;;;20.46;45.73;101269.41;7288090;19;151776;-49
2022/02/03 06:32:03;;;;;;;;;;;;;;;20.50;45.07;101262.06;7286987;19;151790;-49
2022/02/03 06:34:29;;;;;;;;;;;;;;;20.55;45.03;101256.38;7286487;19;152305;-48
2022/02/03 06:36:56;;;;;;;;;;;;;;;20.61;45.06;101263.59;7287635;19;151898;-48
2022/02/03 06:39:25;;;;;;;;;;;;;;;20.65;44.56;101267.47;7288109;19;153122;-48
2022/02/03 06:41:55;;;;;;;;;;;;;;;20.70;44.27;101259.00;7284908;19;153811;-48
2022/02/03 06:44:29;;;;;;;;;;;;;;;20.75;44.57;101267.34;7285862;19;151704;-48
2022/02/03 06:47:00;;;;;;;;;;;;;;;20.82;44.51;101272.56;7295070;19;152730;-48
2022/02/03 06:52:01;;;;;;;;;;;;;;;20.92;44.00;101257.56;7287079;19;153304;-48
2022/02/03 06:54:41;;;;;;;;;;;;;;;20.96;44.12;101258.63;7284727;19;154166;-49
2022/02/03 06:57:15;;;;;;;;;;;;;;;21.01;44.13;101250.09;7287210;19;151676;-48
2022/02/03 06:59:53;;;;;;;;;;;;;;;21.04;43.90;101247.53;7288225;19;152892;-48
2022/02/03 07:02:22;;;;;;;;;;;;;;;21.09;43.69;101252.22;7283793;19;153421;-48
2022/02/03 07:04:49;;;;;;;;;;;;;;;21.14;43.78;101255.81;7285721;19;151969;-49
2022/02/03 07:07:18;;;;;;;;;;;;;;;21.17;43.86;101258.00;7287873;19;152845;-48
2022/02/03 07:09:48;;;;;;;;;;;;;;;21.22;43.33;101257.09;7292613;19;153988;-49
2022/02/03 07:12:15;;;;;;;;;;;;;;;21.25;43.36;101256.50;7284268;19;152212;-48
2022/02/03 07:14:41;;;;;;;;;;;;;;;21.32;43.64;101256.09;7285604;19;152891;-49
2022/02/03 07:17:10;;;;;;;;;;;;;;;21.37;43.87;101264.44;7286750;19;151774;-48
2022/02/03 07:19:43;;;;;;;;;;;;;;;21.43;43.37;101261.28;7284299;19;151785;-49
2022/02/03 07:22:10;;;;;;;;;;;;;;;21.47;42.79;101264.28;7283706;19;152937;-48
2022/02/03 07:24:37;;;;;;;;;;;;;;;21.51;42.90;101266.19;7286463;19;151672;-48
2022/02/03 07:27:04;;;;;;;;;;;;;;;21.53;42.89;101271.50;7286819;19;151944;-48
2022/02/03 07:29:30;;;;;;;;;;;;;;;21.53;42.61;101268.69;7294223;19;153374;-49
2022/02/03 07:31:57;;;;;;;;;;;;;;;21.56;42.28;101263.28;7286916;19;153098;-54
2022/02/03 07:34:24;;;;;;;;;;;;;;;21.58;42.54;101266.59;7283396;19;153863;-49
2022/02/03 07:36:50;;;;;;;;;;;;;;;21.59;42.42;101259.00;7282044;19;151711;-50
2022/02/03 07:39:17;;;;;;;;;;;;;;;21.62;41.61;101264.84;7286867;19;153330;-49
2022/02/03 07:41:44;;;;;;;;;;;;;;;21.61;41.53;101267.97;7283201;19;153410;-49
2022/02/03 07:44:14;;;;;;;;;;;;;;;21.57;41.02;101281.84;7283844;19;151871;-49
2022/02/03 07:46:41;;;;;;;;;;;;;;;21.44;39.50;101271.34;7284370;19;151921;-49
2022/02/03 07:49:08;;;;;;;;;;;;;;;21.47;39.70;101270.75;7283960;19;153924;-49
2022/02/03 07:51:34;;;;;;;;;;;;;;;21.47;39.67;101269.91;7293413;19;151780;-49
2022/02/03 07:54:01;;;;;;;;;;;;;;;21.45;39.70;101258.97;7283363;19;153899;-49
2022/02/03 07:56:28;;;;;;;;;;;;;;;21.43;39.40;101258.44;7283566;19;152568;-49
2022/02/03 07:58:55;;;;;;;;;;;;;;;21.42;39.58;101259.59;7289305;19;152776;-49
2022/02/03 08:01:21;;;;;;;;;;;;;;;21.41;39.86;101259.88;7286303;19;155387;-50
2022/02/03 08:03:49;;;;;;;;;;;;;;;21.39;39.66;101262.19;7284542;19;152082;-50
2022/02/03 08:06:22;;;;;;;;;;;;;;;21.36;39.69;101259.97;7286346;19;153243;-50
2022/02/03 08:08:58;;;;;;;;;;;;;;;21.34;39.57;101245.41;7285165;19;152573;-51
2022/02/03 08:11:30;;;;;;;;;;;;;;;21.30;39.34;101242.38;7286447;19;151813;-50
2022/02/03 08:14:07;;;;;;;;;;;;;;;21.28;39.38;101250.25;7287326;19;154189;-51
2022/02/03 08:16:42;;;;;;;;;;;;;;;21.26;39.76;101253.38;7283463;19;151602;-50
2022/02/03 08:19:17;;;;;;;;;;;;;;;21.23;39.45;101248.38;7283591;19;152187;-50
2022/02/03 08:21:49;;;;;;;;;;;;;;;21.23;39.89;101261.59;7284010;19;153902;-51
2022/02/03 08:24:21;;;;;;;;;;;;;;;21.23;39.53;101255.97;7285681;19;152033;-50
2022/02/03 08:27:04;;;;;;;;;;;;;;;21.28;40.23;101253.06;7282737;19;153479;-51
2022/02/03 08:30:00;;;;;;;;;;;;;;;21.25;40.12;101242.47;7284838;19;153506;-55
2022/02/03 08:32:19;;;;;;;;;;;;;;;21.21;39.91;101247.03;7282316;19;152261;-50
2022/02/03 08:37:14;;;;;;;;;;;;;;;21.14;40.11;101236.16;7286124;19;154259;-51
2022/02/03 08:42:18;;;;;;;;;;;;;;;21.07;39.84;101237.66;7283487;19;154594;-50
2022/02/03 08:44:45;;;;;;;;;;;;;;;21.05;40.06;101251.16;7275203;19;152758;-50
2022/02/03 08:47:11;;;;;;;;;;;;;;;21.03;39.93;101247.84;7279483;19;155615;-51
2022/02/03 08:49:44;;;;;;;;;;;;;;;21.00;40.12;101254.06;7279710;19;152950;-50
2022/02/03 08:52:17;;;;;;;;;;;;;;;20.97;40.04;101252.69;7281286;19;152101;-50
2022/02/03 08:55:02;;;;;;;;;;;;;;;20.95;39.89;101254.97;7283628;19;153880;-50
2022/02/03 08:57:40;;;;;;;;;;;;;;;20.92;39.77;101258.38;7276834;19;154317;-50
2022/02/03 09:34:48;;;;;;;;;;;;;;;20.57;40.20;101231.66;7287757;19;151931;-50
2022/02/03 09:40:07;;;;;;;;;;;;;;;20.57;40.35;101239.25;7285909;19;153730;-50
2022/02/03 09:50:52;;;;;;;;;;;;;;;20.71;39.88;101221.34;7287323;19;152516;-50
2022/02/03 10:03:15;;;;;;;;;;;;;;;20.76;39.75;101201.59;7286515;19;152158;-50
2022/02/03 10:05:54;;;;;;;;;;;;;;;20.75;39.96;101197.16;7287110;19;152935;-50
2022/02/03 10:08:21;;;;;;;;;;;;;;;20.76;39.78;101204.41;7292601;19;153336;-50
2022/02/03 10:10:48;;;;;;;;;;;;;;;20.76;40.05;101204.41;7286009;19;153247;-51
2022/02/03 10:13:19;;;;;;;;;;;;;;;20.76;39.74;101207.22;7279845;19;153971;-50
2022/02/03 10:15:47;;;;;;;;;;;;;;;20.76;39.84;101212.81;7286285;19;151916;-50
2022/02/03 10:18:22;;;;;;;;;;;;;;;20.76;39.66;101201.59;7285038;19;153359;-51
2022/02/03 10:20:49;;;;;;;;;;;;;;;20.76;39.82;101203.56;7283573;19;154106;-50
2022/02/03 10:23:21;;;;;;;;;;;;;;;20.75;39.58;101204.72;7287603;19;151948;-50
2022/02/03 10:25:51;;;;;;;;;;;;;;;20.74;39.88;101208.66;7285638;19;152838;-50
2022/02/03 10:28:18;;;;;;;;;;;;;;;20.76;39.73;101206.38;7286098;19;153983;-50
2022/02/03 10:30:52;;;;;;;;;;;;;;;20.75;39.59;101211.19;7292814;19;152098;-50
2022/02/03 10:33:29;;;;;;;;;;;;;;;20.75;39.89;101205.56;7283703;19;153801;-50
2022/02/03 10:36:01;;;;;;;;;;;;;;;20.73;39.67;101210.63;7282535;19;151651;-50
2022/02/03 10:59:56;;;;;;;;;;;;;;;20.59;39.82;101208.88;7284308;19;153988;-50
2022/02/03 11:07:43;;;;;;;;;;;;;;;20.53;39.54;101205.34;7285346;19;152432;-50
2022/02/03 11:12:48;;;;;;;;;;;;;;;20.49;39.70;101200.63;7283176;19;151529;-50
2022/02/03 11:15:15;;;;;;;;;;;;;;;20.47;39.66;101198.13;7286120;19;153335;-50
2022/02/03 11:17:44;;;;;;;;;;;;;;;20.47;39.67;101180.44;7290072;19;156271;-51
2022/02/03 11:20:11;;;;;;;;;;;;;;;20.43;39.62;101185.81;7284387;19;153445;-50
2022/02/03 11:25:31;;;;;;;;;;;;;;;20.42;40.01;101187.78;7282306;19;152156;-50
2022/02/03 11:33:24;;;;;;;;;;;;;;;20.45;40.14;101186.34;7285537;19;152016;-50
2022/02/03 11:38:40;;;;;;;;;;;;;;;20.49;40.00;101183.78;7281583;19;154182;-50
2022/02/03 11:44:25;;;;;;;;;;;;;;;20.57;40.06;101177.50;7282330;19;153848;-50
2022/02/03 11:47:13;;;;;;;;;;;;;;;20.60;40.20;101166.47;7279158;19;152362;-50
2022/02/03 11:50:04;;;;;;;;;;;;;;;20.66;40.22;101165.28;7282214;19;153577;-50
2022/02/03 12:05:43;;;;;;;;;;;;;;;20.94;39.77;101154.16;7279395;19;154603;-51
2022/02/03 12:13:43;;;;;;;;;;;;;;;21.06;39.47;101140.47;7278567;19;153440;-50
2022/02/03 12:21:30;;;;;;;;;;;;;;;21.16;39.51;101140.31;7281870;19;153578;-50
2022/02/03 12:24:13;;;;;;;;;;;;;;;21.17;39.40;101137.19;7283944;19;151890;-50
2022/02/03 12:26:46;;;;;;;;;;;;;;;21.20;39.37;101136.59;7290185;19;152891;-50
2022/02/03 12:29:19;;;;;;;;;;;;;;;21.21;39.25;101137.44;7282002;19;152098;-50
2022/02/03 12:39:36;;;;;;;;;;;;;;;21.27;39.01;101119.31;7284918;19;153266;-50
2022/02/03 12:42:07;;;;;;;;;;;;;;;21.26;38.72;101124.09;7277846;19;153344;-50
2022/02/03 12:44:38;;;;;;;;;;;;;;;21.28;38.98;101121.00;7282574;19;152218;-50
2022/02/03 12:47:06;;;;;;;;;;;;;;;21.26;38.95;101110.03;7283402;19;152603;-50
2022/02/03 12:49:36;;;;;;;;;;;;;;;21.26;38.84;101107.22;7286541;19;154167;-50
2022/02/03 12:52:13;;;;;;;;;;;;;;;21.27;38.96;101113.69;7281066;19;153193;-50
2022/02/03 12:54:39;;;;;;;;;;;;;;;21.24;38.93;101105.88;7281985;19;154266;-50
2022/02/03 12:57:06;;;;;;;;;;;;;;;21.23;38.84;101107.03;7282383;19;152088;-51
2022/02/03 12:59:33;;;;;;;;;;;;;;;21.21;38.41;101110.13;7281629;19;152812;-51
2022/02/03 13:02:08;;;;;;;;;;;;;;;21.19;38.42;101118.06;7277214;19;154437;-50
2022/02/03 13:04:34;;;;;;;;;;;;;;;21.18;38.42;101122.00;7284343;19;151548;-51
2022/02/03 13:07:03;;;;;;;;;;;;;;;21.17;38.83;101109.09;7283720;19;153489;-50
2022/02/03 13:09:40;;;;;;;;;;;;;;;21.16;38.48;101113.06;7280806;19;152054;-50
2022/02/03 13:12:13;;;;;;;;;;;;;;;21.14;38.67;101103.25;7288931;19;152276;-50
2022/02/03 13:14:46;;;;;;;;;;;;;;;21.13;38.78;101107.19;7282851;19;154300;-50
2022/02/03 13:17:19;;;;;;;;;;;;;;;21.11;38.30;101101.03;7282533;19;152970;-50
2022/02/03 13:20:06;;;;;;;;;;;;;;;21.08;38.73;101104.44;7281684;19;152706;-50
2022/02/03 13:22:46;;;;;;;;;;;;;;;21.06;38.35;101099.16;7280318;19;154012;-50
2022/02/03 13:30:24;;;;;;;;;;;;;;;21.03;38.45;101096.13;7281568;19;153441;-50
2022/02/03 13:32:53;;;;;;;;;;;;;;;21.00;38.45;101089.16;7279474;19;153080;-50
2022/02/03 13:37:51;;;;;;;;;;;;;;;20.97;38.95;101086.13;7279624;19;152229;-50
2022/02/03 13:40:19;;;;;;;;;;;;;;;20.95;39.03;101083.63;7280941;19;153599;-50
2022/02/03 13:42:49;;;;;;;;;;;;;;;20.93;39.00;101085.91;7278862;19;152984;-50
2022/02/03 13:45:18;;;;;;;;;;;;;;;20.91;38.68;101081.72;7278910;19;152611;-50
2022/02/03 13:47:46;;;;;;;;;;;;;;;20.90;39.03;101075.28;7279228;19;151642;-50
2022/02/03 13:50:22;;;;;;;;;;;;;;;20.88;39.25;101080.38;7278501;19;153606;-50
2022/02/03 14:12:02;;;;;;;;;;;;;;;20.72;38.99;101062.13;7283015;19;152481;-50
2022/02/03 14:14:17;;;;;;;;;;;;;;;20.71;39.46;101072.53;7283811;19;152390;-51
2022/02/03 14:29:18;;;;;;;;;;;;;;;20.59;39.54;101063.75;7284858;19;152368;-51
2022/02/03 14:31:50;;;;;;;;;;;;;;;20.57;39.79;101056.78;7282590;19;153983;-50
2022/02/03 14:34:24;;;;;;;;;;;;;;;20.55;39.42;101056.25;7286726;19;151901;-50
2022/02/03 14:37:01;;;;;;;;;;;;;;;20.52;39.50;101062.47;7287993;19;153583;-50
2022/02/03 14:39:45;;;;;;;;;;;;;;;20.49;39.75;101054.69;7282529;19;153599;-50
2022/02/03 14:42:12;;;;;;;;;;;;;;;20.46;39.88;101058.06;7293667;19;152028;-50
2022/02/03 14:44:39;;;;;;;;;;;;;;;20.45;39.83;101062.00;7284326;19;153380;-50
2022/02/03 14:47:07;;;;;;;;;;;;;;;20.41;39.57;101057.00;7284347;19;152237;-50
2022/02/03 14:49:35;;;;;;;;;;;;;;;20.41;39.76;101053.38;7285406;19;152063;-50
2022/02/03 14:59:54;;;;;;;;;;;;;;;20.32;39.56;101063.63;7284452;19;152292;-50
2022/02/03 15:02:21;;;;;;;;;;;;;;;20.29;39.50;101058.59;7286573;19;151842;-50
2022/02/03 15:04:53;;;;;;;;;;;;;;;20.28;39.42;101062.53;7292909;19;152099;-50
2022/02/03 15:07:24;;;;;;;;;;;;;;;20.25;39.64;101049.97;7286515;19;151574;-51
2022/02/03 15:10:13;;;;;;;;;;;;;;;20.21;39.65;101040.50;7282802;19;152848;-50
2022/02/03 15:12:43;;;;;;;;;;;;;;;20.23;40.04;101043.81;7282632;19;153554;-50
2022/02/03 15:15:11;;;;;;;;;;;;;;;20.24;40.24;101041.84;7283768;19;152296;-50
2022/02/03 15:17:38;;;;;;;;;;;;;;;20.22;40.22;101044.09;7285125;19;153174;-49
2022/02/03 15:20:05;;;;;;;;;;;;;;;20.17;40.38;101049.81;7282913;19;155176;-49
2022/02/03 15:22:32;;;;;;;;;;;;;;;20.16;40.46;101057.38;7285236;19;151724;-50
2022/02/03 15:25:02;;;;;;;;;;;;;;;20.14;40.32;101053.19;7285462;19;152849;-50
2022/02/03 15:27:29;;;;;;;;;;;;;;;20.11;40.29;101051.84;7288121;19;153860;-50
2022/02/03 15:30:00;;;;;;;;;;;;;;;20.11;40.25;101053.81;7283364;19;152907;-50
2022/02/03 15:32:27;;;;;;;;;;;;;;;20.08;40.39;101058.03;7282754;19;154112;-50
2022/02/03 15:34:55;;;;;;;;;;;;;;;20.06;40.20;101054.72;7282259;19;152015;-50
2022/02/03 15:37:22;;;;;;;;;;;;;;;20.03;40.12;101057.31;7283361;19;152841;-51
2022/02/03 15:39:51;;;;;;;;;;;;;;;20.03;40.28;101052.53;7282734;19;154282;-51
2022/02/03 15:42:27;;;;;;;;;;;;;;;19.99;40.58;101062.66;7286344;19;151662;-51
2022/02/03 15:44:57;;;;;;;;;;;;;;;19.98;40.34;101058.22;7281725;19;152804;-51
2022/02/03 15:47:33;;;;;;;;;;;;;;;19.97;40.42;101063.00;7283369;19;152649;-51
2022/02/03 16:03:14;;;;;;;;;;;;;;;19.86;40.50;101061.44;7283255;19;152169;-51
2022/02/03 16:14:06;;;;;;;;;;;;;;;19.81;40.82;101035.44;7281275;19;153942;-51
2022/02/03 16:18:52;;;;;;;;;;;;;;;19.76;40.71;101027.94;7279155;19;152200;-51
2022/02/03 16:52:13;;;;;;;;;;;;;;;20.11;40.84;101008.94;7280736;19;151819;-51
2022/02/03 16:54:40;;;;;;;;;;;;;;;20.16;40.82;101008.88;7280254;19;152821;-50
2022/02/03 16:57:14;;;;;;;;;;;;;;;20.22;40.57;101007.63;7287932;19;153435;-50
2022/02/03 16:59:50;;;;;;;;;;;;;;;20.25;40.66;101001.44;7279270;19;152819;-51
2022/02/03 17:02:17;;;;;;;;;;;;;;;20.27;40.24;100999.97;7279970;19;152182;-51
2022/02/03 17:04:48;;;;;;;;;;;;;;;20.34;40.62;100999.63;7280732;19;152864;-51
2022/02/03 17:07:16;;;;;;;;;;;;;;;20.39;40.33;101007.97;7283195;19;153302;-51
2022/02/03 17:09:42;;;;;;;;;;;;;;;20.41;40.15;101014.91;7282665;19;153730;-50
2022/02/03 17:12:09;;;;;;;;;;;;;;;20.47;40.09;100998.84;7280141;19;151879;-51
2022/02/03 17:14:36;;;;;;;;;;;;;;;20.52;40.04;101001.56;7279027;19;153283;-51
2022/02/03 17:17:03;;;;;;;;;;;;;;;20.57;40.21;101009.06;7280877;19;152767;-51
2022/02/03 17:19:30;;;;;;;;;;;;;;;20.62;40.23;101017.41;7286575;19;152801;-51
2022/02/03 17:21:57;;;;;;;;;;;;;;;20.63;40.11;101011.44;7281060;19;154077;-51
2022/02/03 17:24:23;;;;;;;;;;;;;;;20.68;39.96;101011.38;7282414;19;152072;-50
2022/02/03 17:26:59;;;;;;;;;;;;;;;20.70;40.12;101014.72;7281973;19;152240;-51
2022/02/03 18:03:02;;;;;;;;;;;;;;;20.88;39.52;101018.59;7284548;19;154206;-51
2022/02/03 18:06:47;;;;;;;;;;;;;;;20.92;39.28;101016.84;7293312;19;154294;-51
2022/02/03 18:08:47;;;;;;;;;;;;;;;20.90;39.11;101026.69;7284911;19;153513;-51
2022/02/03 18:32:27;;;;;;;;;;;;;;;20.83;39.21;101033.56;7284156;19;153079;-51
2022/02/03 18:55:19;;;;;;;;;;;;;;;20.68;39.47;101014.16;7283573;19;152272;-50
2022/02/03 18:57:55;;;;;;;;;;;;;;;20.68;39.53;101010.53;7276208;19;152755;-50
2022/02/03 19:00:39;;;;;;;;;;;;;;;20.67;39.58;101009.69;7279311;19;153651;-51
2022/02/03 19:11:53;;;;;;;;;;;;;;;20.60;39.43;100985.97;7285729;19;151901;-51
2022/02/03 19:20:49;;;;;;;;;;;;;;;20.52;39.79;100987.53;7284115;19;152771;-51
2022/02/03 19:22:36;;;;;;;;;;;;;;;20.44;39.67;100981.78;7284292;19;152400;-51
2022/02/03 20:05:53;;;;;;;;;;;;;;;20.03;40.30;100988.03;7284590;19;152091;-50
2022/02/03 20:08:41;;;;;;;;;;;;;;;20.02;40.55;100980.75;7283684;19;152820;-50
2022/02/03 20:11:09;;;;;;;;;;;;;;;19.99;40.49;100973.75;7282772;19;153667;-50
2022/02/03 20:13:35;;;;;;;;;;;;;;;20.01;40.61;100973.47;7281505;19;151818;-50
2022/02/03 20:16:02;;;;;;;;;;;;;;;19.99;40.61;100970.13;7284992;19;153426;-50
2022/02/03 20:18:29;;;;;;;;;;;;;;;19.98;40.24;100968.47;7284143;19;153903;-50
2022/02/03 20:20:56;;;;;;;;;;;;;;;19.95;40.46;100964.28;7283087;19;151923;-51
2022/02/03 20:23:24;;;;;;;;;;;;;;;19.92;40.63;100964.91;7288918;19;153955;-51
2022/02/03 20:25:57;;;;;;;;;;;;;;;19.90;40.22;100963.53;7282838;19;151834;-50
2022/02/03 20:28:24;;;;;;;;;;;;;;;19.88;40.33;100960.22;7281647;19;152845;-51
2022/02/03 20:30:51;;;;;;;;;;;;;;;19.87;40.59;100958.53;7278543;19;154014;-50
2022/02/03 20:33:18;;;;;;;;;;;;;;;19.82;40.69;100956.66;7284288;19;152122;-50
2022/02/03 20:35:44;;;;;;;;;;;;;;;19.82;40.33;100965.06;7283438;19;152807;-49
2022/02/03 20:38:15;;;;;;;;;;;;;;;19.79;40.35;100960.06;7282362;19;152126;-48
2022/02/03 20:40:42;;;;;;;;;;;;;;;19.79;40.34;100951.66;7280439;19;152161;-49
2022/02/03 20:43:09;;;;;;;;;;;;;;;19.76;40.56;100949.44;7290268;19;151960;-50
2022/02/03 20:45:36;;;;;;;;;;;;;;;19.75;40.64;100949.75;7281992;19;151922;-49
2022/02/03 20:48:03;;;;;;;;;;;;;;;19.72;40.73;100953.16;7284562;19;152995;-49
2022/02/03 20:50:30;;;;;;;;;;;;;;;19.71;40.62;100943.09;7280376;19;154639;-49
2022/02/03 20:52:57;;;;;;;;;;;;;;;19.72;40.70;100950.34;7283857;19;151884;-50
2022/02/03 20:55:29;;;;;;;;;;;;;;;19.69;40.38;100951.81;7284366;19;153092;-50
2022/02/03 20:57:56;;;;;;;;;;;;;;;19.68;40.74;100935.28;7278601;19;153451;-50
2022/02/03 21:00:26;;;;;;;;;;;;;;;19.66;40.80;100935.59;7280247;19;151830;-50
2022/02/03 21:05:20;;;;;;;;;;;;;;;19.64;40.65;100943.47;7287582;19;154300;-49
2022/02/03 21:07:48;;;;;;;;;;;;;;;19.62;40.61;100937.34;7280014;19;152883;-49
2022/02/03 21:10:18;;;;;;;;;;;;;;;19.61;40.69;100944.06;7279843;19;152829;-49
2022/02/03 21:12:46;;;;;;;;;;;;;;;19.59;40.74;100932.31;7280474;19;152343;-50
2022/02/03 21:15:21;;;;;;;;;;;;;;;19.60;40.91;100930.34;7281453;19;151953;-49
2022/02/03 21:17:48;;;;;;;;;;;;;;;19.56;41.00;100938.53;7280068;19;152552;-49
2022/02/03 21:20:17;;;;;;;;;;;;;;;19.54;41.00;100935.19;7280456;19;152162;-49
2022/02/03 21:22:44;;;;;;;;;;;;;;;19.53;40.79;100930.75;7284257;19;153238;-50
2022/02/03 21:25:19;;;;;;;;;;;;;;;19.51;41.01;100930.19;7281686;19;154258;-50
2022/02/03 21:27:46;;;;;;;;;;;;;;;19.49;40.75;100924.88;7288543;19;152182;-50
2022/02/03 21:30:14;;;;;;;;;;;;;;;19.49;40.86;100929.66;7282876;19;153937;-50
2022/02/03 21:32:46;;;;;;;;;;;;;;;19.47;41.00;100917.94;7283391;19;151883;-50
2022/02/03 21:35:13;;;;;;;;;;;;;;;19.45;41.23;100921.03;7282324;19;153290;-51
2022/02/03 21:37:41;;;;;;;;;;;;;;;19.43;41.02;100914.91;7279808;19;153453;-51
2022/02/03 21:40:08;;;;;;;;;;;;;;;19.42;41.32;100916.00;7280093;19;152013;-51
2022/02/03 21:42:35;;;;;;;;;;;;;;;19.41;41.13;100913.50;7282522;19;153544;-50
2022/02/03 21:45:02;;;;;;;;;;;;;;;19.38;41.04;100919.72;7279353;19;153405;-51
2022/02/03 21:47:29;;;;;;;;;;;;;;;19.39;41.14;100912.97;7277560;19;152365;-50
2022/02/03 21:49:58;;;;;;;;;;;;;;;19.35;41.14;100914.72;7288357;19;153081;-50
2022/02/03 21:52:32;;;;;;;;;;;;;;;19.35;41.32;100923.13;7281758;19;151762;-51
2022/02/03 21:55:00;;;;;;;;;;;;;;;19.33;41.17;100914.19;7281891;19;151726;-50
2022/02/03 21:57:26;;;;;;;;;;;;;;;19.30;41.47;100912.81;7277908;19;154130;-51
2022/02/03 21:59:55;;;;;;;;;;;;;;;19.30;41.07;100912.00;7278530;19;152021;-49
2022/02/03 22:02:22;;;;;;;;;;;;;;;19.28;41.45;100912.28;7282611;19;153169;-50
2022/02/03 22:04:49;;;;;;;;;;;;;;;19.28;41.39;100908.63;7278011;19;153887;-49
2022/02/03 22:07:15;;;;;;;;;;;;;;;19.25;41.18;100903.66;7282084;19;152166;-50
2022/02/03 22:09:42;;;;;;;;;;;;;;;19.22;41.19;100913.47;7280149;19;152943;-50
2022/02/03 22:12:09;;;;;;;;;;;;;;;19.21;41.59;100902.59;7284402;19;153381;-49
2022/02/03 22:14:36;;;;;;;;;;;;;;;19.21;41.34;100888.59;7281587;19;151871;-49
2022/02/03 22:17:03;;;;;;;;;;;;;;;19.19;41.62;100888.88;7276248;19;153675;-49
2022/02/03 22:19:30;;;;;;;;;;;;;;;19.18;41.22;100890.00;7279445;19;151809;-50
2022/02/03 22:24:58;;;;;;;;;;;;;;;19.15;41.30;100904.63;7277254;19;154401;-49
2022/02/03 22:48:24;;;;;;;;;;;;;;;19.16;42.59;100899.84;7279776;19;152454;-49
2022/02/03 22:50:51;;;;;;;;;;;;;;;19.20;42.80;100900.91;7281051;19;152957;-49
2022/02/03 22:53:19;;;;;;;;;;;;;;;19.24;42.77;100905.63;7284328;19;153446;-50
2022/02/03 22:55:45;;;;;;;;;;;;;;;19.27;42.58;100902.19;7295123;19;152049;-50
2022/02/03 23:00:58;;;;;;;;;;;;;;;19.39;42.38;100893.38;7281889;19;152316;-50
2022/02/03 23:03:25;;;;;;;;;;;;;;;19.45;42.70;100892.16;7284898;19;152810;-50
2022/02/03 23:05:52;;;;;;;;;;;;;;;19.50;42.26;100892.94;7283835;19;153220;-50
2022/02/03 23:08:23;;;;;;;;;;;;;;;19.57;42.81;100894.53;7287616;19;152068;-50
2022/02/03 23:13:59;;;;;;;;;;;;;;;19.70;42.28;100890.97;7281937;19;154747;-50
2022/02/03 23:19:00;;;;;;;;;;;;;;;19.82;42.32;100875.34;7292012;19;152876;-50
2022/02/03 23:21:42;;;;;;;;;;;;;;;19.88;42.30;100876.94;7284133;19;152207;-50
2022/02/03 23:24:08;;;;;;;;;;;;;;;19.94;42.01;100878.50;7284553;19;151949;-50
2022/02/03 23:26:35;;;;;;;;;;;;;;;20.01;41.96;100875.31;7283372;19;154010;-49
2022/02/03 23:29:11;;;;;;;;;;;;;;;20.06;41.99;100865.97;7286062;19;152358;-50
2022/02/03 23:32:09;;;;;;;;;;;;;;;20.12;41.99;100874.00;7284319;19;153609;-50
2022/02/03 23:34:24;;;;;;;;;;;;;;;20.19;41.75;100865.16;7283127;19;154129;-50